sensor_id;sensor_type;location;lat;lon;timestamp;pressure;altitude;pressure_sealevel;temperature;humidity
79221;BME280;68648;52.114;5.424;2023-06-19T00:00:06;100847.16;;;21.48;49.89
79221;BME280;68648;52.114;5.424;2023-06-19T00:02:40;100850.69;;;21.48;49.52
79221;BME280;68648;52.114;5.424;2023-06-19T00:05:07;100845.72;;;21.52;49.70
79221;BME280;68648;52.114;5.424;2023-06-19T00:07:36;100854.41;;;21.54;49.87
79221;BME280;68648;52.114;5.424;2023-06-19T00:10:05;100863.31;;;21.54;49.89
79221;BME280;68648;52.114;5.424;2023-06-19T00:12:33;100857.94;;;21.54;50.15
79221;BME280;68648;52.114;5.424;2023-06-19T00:15:01;100856.91;;;21.55;50.21
79221;BME280;68648;52.114;5.424;2023-06-19T00:17:32;100861.66;;;21.53;50.25
79221;BME280;68648;52.114;5.424;2023-06-19T00:20:00;100856.47;;;21.52;50.42
79221;BME280;68648;52.114;5.424;2023-06-19T00:22:29;100856.69;;;21.50;50.60
79221;BME280;68648;52.114;5.424;2023-06-19T00:24:56;100853.16;;;21.50;50.74
79221;BME280;68648;52.114;5.424;2023-06-19T00:27:24;100852.34;;;21.49;50.78
79221;BME280;68648;52.114;5.424;2023-06-19T00:29:51;100854.63;;;21.52;51.06
79221;BME280;68648;52.114;5.424;2023-06-19T00:32:18;100851.09;;;21.52;51.21
79221;BME280;68648;52.114;5.424;2023-06-19T00:34:49;100858.34;;;21.51;51.52
79221;BME280;68648;52.114;5.424;2023-06-19T00:37:16;100863.53;;;21.53;51.94
79221;BME280;68648;52.114;5.424;2023-06-19T00:39:45;100857.94;;;21.54;52.30
79221;BME280;68648;52.114;5.424;2023-06-19T00:42:12;100864.97;;;21.55;52.37
79221;BME280;68648;52.114;5.424;2023-06-19T00:44:40;100869.31;;;21.50;53.01
79221;BME280;68648;52.114;5.424;2023-06-19T00:47:07;100872.63;;;21.45;53.45
79221;BME280;68648;52.114;5.424;2023-06-19T00:49:34;100885.47;;;21.43;53.68
79221;BME280;68648;52.114;5.424;2023-06-19T00:52:01;100878.25;;;21.37;53.99
79221;BME280;68648;52.114;5.424;2023-06-19T00:54:29;100882.59;;;21.32;54.42
79221;BME280;68648;52.114;5.424;2023-06-19T00:56:57;100871.63;;;21.26;54.55
79221;BME280;68648;52.114;5.424;2023-06-19T00:59:24;100874.09;;;21.21;55.05
79221;BME280;68648;52.114;5.424;2023-06-19T01:01:52;100880.69;;;21.19;55.63
79221;BME280;68648;52.114;5.424;2023-06-19T01:04:25;100884.63;;;21.16;55.68
79221;BME280;68648;52.114;5.424;2023-06-19T01:06:57;100881.13;;;21.09;56.38
79221;BME280;68648;52.114;5.424;2023-06-19T01:09:29;100882.75;;;21.04;56.72
79221;BME280;68648;52.114;5.424;2023-06-19T01:12:09;100897.22;;;20.96;57.18
79221;BME280;68648;52.114;5.424;2023-06-19T01:14:59;100896.41;;;20.89;57.35
79221;BME280;68648;52.114;5.424;2023-06-19T01:17:28;100900.94;;;20.82;58.11
79221;BME280;68648;52.114;5.424;2023-06-19T01:19:56;100886.84;;;20.80;58.24
79221;BME280;68648;52.114;5.424;2023-06-19T01:22:30;100899.91;;;20.76;58.69
79221;BME280;68648;52.114;5.424;2023-06-19T01:24:58;100909.59;;;20.71;58.74
79221;BME280;68648;52.114;5.424;2023-06-19T01:27:27;100903.16;;;20.65;59.24
79221;BME280;68648;52.114;5.424;2023-06-19T01:29:59;100907.50;;;20.59;59.36
79221;BME280;68648;52.114;5.424;2023-06-19T01:32:50;100904.34;;;20.49;59.77
79221;BME280;68648;52.114;5.424;2023-06-19T01:35:23;100912.59;;;20.41;60.20
79221;BME280;68648;52.114;5.424;2023-06-19T01:37:52;100910.50;;;20.37;60.88
79221;BME280;68648;52.114;5.424;2023-06-19T01:40:20;100915.81;;;20.30;61.17
79221;BME280;68648;52.114;5.424;2023-06-19T01:42:53;100917.66;;;20.23;62.18
79221;BME280;68648;52.114;5.424;2023-06-19T01:45:23;100926.94;;;20.20;61.73
79221;BME280;68648;52.114;5.424;2023-06-19T01:47:51;100926.06;;;20.13;62.75
79221;BME280;68648;52.114;5.424;2023-06-19T01:50:21;100916.34;;;20.06;63.35
79221;BME280;68648;52.114;5.424;2023-06-19T01:52:50;100915.69;;;20.04;63.74
79221;BME280;68648;52.114;5.424;2023-06-19T01:55:18;100921.25;;;20.02;64.02
79221;BME280;68648;52.114;5.424;2023-06-19T01:57:48;100925.63;;;20.03;64.05
79221;BME280;68648;52.114;5.424;2023-06-19T02:00:16;100921.25;;;20.02;64.18
79221;BME280;68648;52.114;5.424;2023-06-19T02:02:43;100922.69;;;19.98;64.64
79221;BME280;68648;52.114;5.424;2023-06-19T02:05:11;100923.94;;;19.96;64.81
79221;BME280;68648;52.114;5.424;2023-06-19T02:07:38;100926.81;;;19.94;65.22
79221;BME280;68648;52.114;5.424;2023-06-19T02:10:06;100934.03;;;19.94;65.17
79221;BME280;68648;52.114;5.424;2023-06-19T02:12:33;100929.31;;;19.96;65.91
79221;BME280;68648;52.114;5.424;2023-06-19T02:15:00;100935.50;;;19.96;65.95
79221;BME280;68648;52.114;5.424;2023-06-19T02:17:27;100942.50;;;19.97;66.06
79221;BME280;68648;52.114;5.424;2023-06-19T02:19:54;100925.38;;;19.98;66.23
79221;BME280;68648;52.114;5.424;2023-06-19T02:22:21;100925.38;;;19.98;66.55
79221;BME280;68648;52.114;5.424;2023-06-19T02:24:48;100933.44;;;19.98;66.28
79221;BME280;68648;52.114;5.424;2023-06-19T02:27:15;100938.19;;;19.96;66.57
79221;BME280;68648;52.114;5.424;2023-06-19T02:29:43;100937.13;;;19.97;66.40
79221;BME280;68648;52.114;5.424;2023-06-19T02:32:10;100940.88;;;19.96;66.44
79221;BME280;68648;52.114;5.424;2023-06-19T02:34:37;100937.34;;;19.96;66.62
79221;BME280;68648;52.114;5.424;2023-06-19T02:37:07;100941.25;;;19.93;66.64
79221;BME280;68648;52.114;5.424;2023-06-19T02:39:34;100948.31;;;19.94;67.08
79221;BME280;68648;52.114;5.424;2023-06-19T02:42:02;100944.78;;;19.94;67.22
79221;BME280;68648;52.114;5.424;2023-06-19T02:44:29;100943.31;;;19.91;67.62
79221;BME280;68648;52.114;5.424;2023-06-19T02:46:57;100942.47;;;19.90;67.51
79221;BME280;68648;52.114;5.424;2023-06-19T02:49:25;100955.28;;;19.88;67.52
79221;BME280;68648;52.114;5.424;2023-06-19T02:51:52;100953.22;;;19.90;67.65
79221;BME280;68648;52.114;5.424;2023-06-19T02:54:19;100959.44;;;19.91;67.62
79221;BME280;68648;52.114;5.424;2023-06-19T02:56:46;100967.69;;;19.89;67.74
79221;BME280;68648;52.114;5.424;2023-06-19T02:59:13;100964.16;;;19.89;68.00
79221;BME280;68648;52.114;5.424;2023-06-19T03:01:40;100970.16;;;19.91;67.96
79221;BME280;68648;52.114;5.424;2023-06-19T03:04:08;100968.72;;;19.88;67.94
79221;BME280;68648;52.114;5.424;2023-06-19T03:06:35;100973.06;;;19.89;68.26
79221;BME280;68648;52.114;5.424;2023-06-19T03:09:07;100968.72;;;19.88;68.13
79221;BME280;68648;52.114;5.424;2023-06-19T03:11:39;100963.34;;;19.88;68.13
79221;BME280;68648;52.114;5.424;2023-06-19T03:14:06;100965.56;;;19.85;68.67
79221;BME280;68648;52.114;5.424;2023-06-19T03:16:34;100961.88;;;19.86;68.37
79221;BME280;68648;52.114;5.424;2023-06-19T03:19:02;100960.19;;;19.85;68.48
79221;BME280;68648;52.114;5.424;2023-06-19T03:21:29;100960.41;;;19.83;69.10
79221;BME280;68648;52.114;5.424;2023-06-19T03:23:57;100961.63;;;19.81;69.31
79221;BME280;68648;52.114;5.424;2023-06-19T03:26:24;100970.50;;;19.81;69.24
79221;BME280;68648;52.114;5.424;2023-06-19T03:28:51;100970.72;;;19.80;69.55
79221;BME280;68648;52.114;5.424;2023-06-19T03:31:18;100975.03;;;19.81;69.48
79221;BME280;68648;52.114;5.424;2023-06-19T03:33:46;100980.81;;;19.78;69.79
79221;BME280;68648;52.114;5.424;2023-06-19T03:36:13;100977.94;;;19.79;70.08
79221;BME280;68648;52.114;5.424;2023-06-19T03:38:40;100984.53;;;19.77;69.97
79221;BME280;68648;52.114;5.424;2023-06-19T03:41:07;100984.53;;;19.77;70.17
79221;BME280;68648;52.114;5.424;2023-06-19T03:43:34;100984.72;;;19.75;70.44
79221;BME280;68648;52.114;5.424;2023-06-19T03:46:01;100994.19;;;19.71;70.65
79221;BME280;68648;52.114;5.424;2023-06-19T03:48:28;100991.69;;;19.70;70.74
79221;BME280;68648;52.114;5.424;2023-06-19T03:50:55;100997.63;;;19.65;71.33
79221;BME280;68648;52.114;5.424;2023-06-19T03:53:22;101019.06;;;19.59;71.98
79221;BME280;68648;52.114;5.424;2023-06-19T03:55:49;101015.28;;;19.53;72.39
79221;BME280;68648;52.114;5.424;2023-06-19T03:58:16;101019.19;;;19.50;73.41
79221;BME280;68648;52.114;5.424;2023-06-19T04:00:43;101019.75;;;19.46;73.88
79221;BME280;68648;52.114;5.424;2023-06-19T04:03:12;101018.47;;;19.42;74.27
79221;BME280;68648;52.114;5.424;2023-06-19T04:05:39;101023.19;;;19.40;74.67
79221;BME280;68648;52.114;5.424;2023-06-19T04:08:08;101019.88;;;19.38;74.76
79221;BME280;68648;52.114;5.424;2023-06-19T04:10:35;101020.69;;;19.38;74.90
79221;BME280;68648;52.114;5.424;2023-06-19T04:13:02;101023.75;;;19.35;75.09
79221;BME280;68648;52.114;5.424;2023-06-19T04:15:29;101031.81;;;19.35;75.31
79221;BME280;68648;52.114;5.424;2023-06-19T04:17:58;101030.56;;;19.31;75.61
79221;BME280;68648;52.114;5.424;2023-06-19T04:20:30;101040.63;;;19.29;75.98
79221;BME280;68648;52.114;5.424;2023-06-19T04:22:57;101044.34;;;19.28;76.14
79221;BME280;68648;52.114;5.424;2023-06-19T04:25:27;101044.91;;;19.23;76.45
79221;BME280;68648;52.114;5.424;2023-06-19T04:27:54;101036.47;;;19.27;76.61
79221;BME280;68648;52.114;5.424;2023-06-19T04:30:21;101053.22;;;19.29;76.57
79221;BME280;68648;52.114;5.424;2023-06-19T04:32:49;101054.25;;;19.28;76.48
79221;BME280;68648;52.114;5.424;2023-06-19T04:35:16;101067.00;;;19.26;76.89
79221;BME280;68648;52.114;5.424;2023-06-19T04:37:45;101065.34;;;19.25;77.29
79221;BME280;68648;52.114;5.424;2023-06-19T04:40:15;101071.09;;;19.21;77.69
79221;BME280;68648;52.114;5.424;2023-06-19T04:42:42;101074.13;;;19.18;77.74
79221;BME280;68648;52.114;5.424;2023-06-19T04:45:09;101074.09;;;19.12;77.83
79221;BME280;68648;52.114;5.424;2023-06-19T04:47:36;101079.44;;;19.12;78.04
79221;BME280;68648;52.114;5.424;2023-06-19T04:50:18;101075.47;;;19.08;77.94
79221;BME280;68648;52.114;5.424;2023-06-19T04:52:45;101082.50;;;19.09;77.82
79221;BME280;68648;52.114;5.424;2023-06-19T04:55:12;101082.97;;;19.12;76.88
79221;BME280;68648;52.114;5.424;2023-06-19T04:57:40;101088.75;;;19.16;76.83
79221;BME280;68648;52.114;5.424;2023-06-19T05:00:07;101093.75;;;19.19;76.18
79221;BME280;68648;52.114;5.424;2023-06-19T05:02:39;101088.47;;;19.26;75.69
79221;BME280;68648;52.114;5.424;2023-06-19T05:05:10;101084.22;;;19.31;74.29
79221;BME280;68648;52.114;5.424;2023-06-19T05:07:41;101078.25;;;19.36;73.85
79221;BME280;68648;52.114;5.424;2023-06-19T05:10:09;101093.53;;;19.35;73.62
79221;BME280;68648;52.114;5.424;2023-06-19T05:12:37;101091.69;;;19.36;73.14
79221;BME280;68648;52.114;5.424;2023-06-19T05:15:04;101100.84;;;19.41;73.14
79221;BME280;68648;52.114;5.424;2023-06-19T05:17:31;101096.09;;;19.43;72.98
79221;BME280;68648;52.114;5.424;2023-06-19T05:19:58;101104.81;;;19.45;72.91
79221;BME280;68648;52.114;5.424;2023-06-19T05:22:26;101101.09;;;19.46;72.78
79221;BME280;68648;52.114;5.424;2023-06-19T05:24:54;101110.44;;;19.50;72.92
79221;BME280;68648;52.114;5.424;2023-06-19T05:27:23;101109.34;;;19.45;73.07
79221;BME280;68648;52.114;5.424;2023-06-19T05:29:50;101115.34;;;19.47;72.89
79221;BME280;68648;52.114;5.424;2023-06-19T05:32:17;101121.19;;;19.36;72.45
79221;BME280;68648;52.114;5.424;2023-06-19T05:34:45;101121.50;;;19.26;72.19
79221;BME280;68648;52.114;5.424;2023-06-19T05:37:16;101116.63;;;19.15;72.25
79221;BME280;68648;52.114;5.424;2023-06-19T05:39:43;101118.38;;;19.08;72.04
79221;BME280;68648;52.114;5.424;2023-06-19T05:42:10;101118.75;;;19.05;72.27
79221;BME280;68648;52.114;5.424;2023-06-19T05:44:37;101125.41;;;19.09;72.28
79221;BME280;68648;52.114;5.424;2023-06-19T05:47:05;101133.16;;;19.18;72.06
79221;BME280;68648;52.114;5.424;2023-06-19T05:49:31;101131.50;;;19.17;72.07
79221;BME280;68648;52.114;5.424;2023-06-19T05:51:58;101127.16;;;19.16;72.25
79221;BME280;68648;52.114;5.424;2023-06-19T05:54:25;101137.31;;;19.21;72.46
79221;BME280;68648;52.114;5.424;2023-06-19T05:56:52;101133.25;;;19.25;72.44
79221;BME280;68648;52.114;5.424;2023-06-19T05:59:19;101126.31;;;19.31;72.39
79221;BME280;68648;52.114;5.424;2023-06-19T06:01:46;101134.63;;;19.36;72.03
79221;BME280;68648;52.114;5.424;2023-06-19T06:04:12;101132.94;;;19.35;72.24
79221;BME280;68648;52.114;5.424;2023-06-19T06:06:40;101135.38;;;19.30;72.47
79221;BME280;68648;52.114;5.424;2023-06-19T06:09:07;101141.31;;;19.25;71.93
79221;BME280;68648;52.114;5.424;2023-06-19T06:11:37;101140.19;;;19.19;72.55
79221;BME280;68648;52.114;5.424;2023-06-19T06:14:05;101145.50;;;19.13;72.82
79221;BME280;68648;52.114;5.424;2023-06-19T06:16:40;101153.25;;;19.22;72.18
79221;BME280;68648;52.114;5.424;2023-06-19T06:19:07;101165.56;;;19.32;71.76
79221;BME280;68648;52.114;5.424;2023-06-19T06:21:33;101168.47;;;19.37;71.36
79221;BME280;68648;52.114;5.424;2023-06-19T06:24:01;101158.69;;;19.29;69.98
79221;BME280;68648;52.114;5.424;2023-06-19T06:26:28;101178.75;;;19.33;69.82
79221;BME280;68648;52.114;5.424;2023-06-19T06:28:54;101177.28;;;19.45;69.21
79221;BME280;68648;52.114;5.424;2023-06-19T06:31:22;101179.38;;;19.65;68.40
79221;BME280;68648;52.114;5.424;2023-06-19T06:33:49;101179.69;;;19.91;67.35
79221;BME280;68648;52.114;5.424;2023-06-19T06:36:16;101184.34;;;20.04;65.91
79221;BME280;68648;52.114;5.424;2023-06-19T06:39:01;101179.53;;;20.20;64.51
79221;BME280;68648;52.114;5.424;2023-06-19T06:41:27;101181.41;;;20.41;62.41
79221;BME280;68648;52.114;5.424;2023-06-19T06:43:54;101187.72;;;20.34;61.75
79221;BME280;68648;52.114;5.424;2023-06-19T06:46:21;101190.28;;;20.20;61.96
79221;BME280;68648;52.114;5.424;2023-06-19T06:48:49;101196.41;;;20.14;62.24
79221;BME280;68648;52.114;5.424;2023-06-19T06:51:16;101202.69;;;20.21;62.79
79221;BME280;68648;52.114;5.424;2023-06-19T06:53:42;101203.59;;;20.29;62.34
79221;BME280;68648;52.114;5.424;2023-06-19T06:56:09;101201.53;;;20.31;62.79
79221;BME280;68648;52.114;5.424;2023-06-19T06:58:36;101219.31;;;20.32;62.92
79221;BME280;68648;52.114;5.424;2023-06-19T07:01:02;101216.00;;;20.30;63.03
79221;BME280;68648;52.114;5.424;2023-06-19T07:03:29;101216.31;;;20.20;62.99
79221;BME280;68648;52.114;5.424;2023-06-19T07:05:58;101219.41;;;20.17;63.37
79221;BME280;68648;52.114;5.424;2023-06-19T07:08:24;101225.16;;;20.35;63.31
79221;BME280;68648;52.114;5.424;2023-06-19T07:10:51;101226.19;;;20.55;63.09
79221;BME280;68648;52.114;5.424;2023-06-19T07:13:18;101226.69;;;20.66;62.46
79221;BME280;68648;52.114;5.424;2023-06-19T07:15:45;101232.22;;;20.57;62.56
79221;BME280;68648;52.114;5.424;2023-06-19T07:18:11;101240.31;;;20.64;62.77
79221;BME280;68648;52.114;5.424;2023-06-19T07:20:38;101239.47;;;20.64;63.07
79221;BME280;68648;52.114;5.424;2023-06-19T07:23:04;101250.00;;;20.58;63.37
79221;BME280;68648;52.114;5.424;2023-06-19T07:25:31;101252.78;;;20.44;64.51
79221;BME280;68648;52.114;5.424;2023-06-19T07:28:01;101257.06;;;20.38;65.00
79221;BME280;68648;52.114;5.424;2023-06-19T07:30:28;101259.94;;;20.37;65.28
79221;BME280;68648;52.114;5.424;2023-06-19T07:32:54;101267.63;;;20.40;65.16
79221;BME280;68648;52.114;5.424;2023-06-19T07:35:21;101268.47;;;20.40;64.96
79221;BME280;68648;52.114;5.424;2023-06-19T07:37:47;101266.16;;;20.37;64.98
79221;BME280;68648;52.114;5.424;2023-06-19T07:40:14;101272.88;;;20.33;64.39
79221;BME280;68648;52.114;5.424;2023-06-19T07:42:41;101275.44;;;20.20;64.25
79221;BME280;68648;52.114;5.424;2023-06-19T07:45:11;101274.94;;;20.31;63.27
79221;BME280;68648;52.114;5.424;2023-06-19T07:47:37;101273.84;;;20.40;62.26
79221;BME280;68648;52.114;5.424;2023-06-19T07:50:04;101275.44;;;20.56;60.58
79221;BME280;68648;52.114;5.424;2023-06-19T07:52:31;101288.09;;;20.62;60.70
79221;BME280;68648;52.114;5.424;2023-06-19T07:54:58;101286.81;;;20.58;60.73
79221;BME280;68648;52.114;5.424;2023-06-19T07:57:25;101294.56;;;20.68;60.82
79221;BME280;68648;52.114;5.424;2023-06-19T07:59:54;101296.53;;;20.80;60.92
79221;BME280;68648;52.114;5.424;2023-06-19T08:02:21;101302.91;;;20.79;60.97
79221;BME280;68648;52.114;5.424;2023-06-19T08:04:49;101290.44;;;20.93;61.19
79221;BME280;68648;52.114;5.424;2023-06-19T08:07:16;101304.03;;;20.85;60.49
79221;BME280;68648;52.114;5.424;2023-06-19T08:09:43;101293.50;;;20.90;59.79
79221;BME280;68648;52.114;5.424;2023-06-19T08:12:09;101296.97;;;20.84;60.44
79221;BME280;68648;52.114;5.424;2023-06-19T08:14:36;101297.69;;;20.92;60.26
79221;BME280;68648;52.114;5.424;2023-06-19T08:17:05;101303.81;;;20.86;59.97
79221;BME280;68648;52.114;5.424;2023-06-19T08:19:31;101296.25;;;20.96;60.54
79221;BME280;68648;52.114;5.424;2023-06-19T08:21:58;101304.56;;;21.23;59.29
79221;BME280;68648;52.114;5.424;2023-06-19T08:24:24;101308.50;;;21.61;58.59
79221;BME280;68648;52.114;5.424;2023-06-19T08:26:51;101306.44;;;21.63;57.76
79221;BME280;68648;52.114;5.424;2023-06-19T08:29:18;101308.94;;;21.65;57.88
79221;BME280;68648;52.114;5.424;2023-06-19T08:31:45;101315.78;;;21.68;58.25
79221;BME280;68648;52.114;5.424;2023-06-19T08:34:12;101309.44;;;21.82;57.76
79221;BME280;68648;52.114;5.424;2023-06-19T08:36:38;101324.38;;;21.84;57.89
79221;BME280;68648;52.114;5.424;2023-06-19T08:39:05;101327.09;;;21.91;57.77
79221;BME280;68648;52.114;5.424;2023-06-19T08:41:38;101331.31;;;21.65;57.67
79221;BME280;68648;52.114;5.424;2023-06-19T08:44:05;101331.19;;;21.46;58.95
79221;BME280;68648;52.114;5.424;2023-06-19T08:46:32;101334.34;;;21.49;58.97
79221;BME280;68648;52.114;5.424;2023-06-19T08:49:03;101342.78;;;21.46;58.35
79221;BME280;68648;52.114;5.424;2023-06-19T08:51:32;101343.50;;;21.27;59.08
79221;BME280;68648;52.114;5.424;2023-06-19T08:54:04;101344.94;;;21.23;59.17
79221;BME280;68648;52.114;5.424;2023-06-19T08:56:32;101352.81;;;21.03;59.71
79221;BME280;68648;52.114;5.424;2023-06-19T08:59:10;101358.47;;;21.15;59.55
79221;BME280;68648;52.114;5.424;2023-06-19T09:01:38;101360.69;;;21.26;58.79
79221;BME280;68648;52.114;5.424;2023-06-19T09:04:13;101351.44;;;21.35;58.61
79221;BME280;68648;52.114;5.424;2023-06-19T09:06:58;101351.69;;;21.75;57.97
79221;BME280;68648;52.114;5.424;2023-06-19T09:09:26;101352.78;;;21.52;58.44
79221;BME280;68648;52.114;5.424;2023-06-19T09:12:04;101350.34;;;21.29;59.16
79221;BME280;68648;52.114;5.424;2023-06-19T09:14:42;101353.09;;;21.36;59.06
79221;BME280;68648;52.114;5.424;2023-06-19T09:17:17;101358.28;;;21.38;59.29
79221;BME280;68648;52.114;5.424;2023-06-19T09:19:51;101360.34;;;21.70;58.69
79221;BME280;68648;52.114;5.424;2023-06-19T09:22:20;101361.78;;;22.01;57.45
79221;BME280;68648;52.114;5.424;2023-06-19T09:24:47;101365.81;;;22.18;56.66
79221;BME280;68648;52.114;5.424;2023-06-19T09:27:17;101368.56;;;21.90;57.28
79221;BME280;68648;52.114;5.424;2023-06-19T09:29:49;101368.44;;;21.70;57.34
79221;BME280;68648;52.114;5.424;2023-06-19T09:32:17;101371.09;;;21.63;57.75
79221;BME280;68648;52.114;5.424;2023-06-19T09:34:44;101379.47;;;21.47;57.79
79221;BME280;68648;52.114;5.424;2023-06-19T09:37:11;101380.63;;;21.66;57.77
79221;BME280;68648;52.114;5.424;2023-06-19T09:39:39;101383.16;;;22.02;56.69
79221;BME280;68648;52.114;5.424;2023-06-19T09:42:10;101386.72;;;22.16;56.01
79221;BME280;68648;52.114;5.424;2023-06-19T09:44:40;101392.38;;;22.27;55.15
79221;BME280;68648;52.114;5.424;2023-06-19T09:47:18;101385.31;;;22.20;55.82
79221;BME280;68648;52.114;5.424;2023-06-19T09:49:55;101391.41;;;22.48;54.88
79221;BME280;68648;52.114;5.424;2023-06-19T09:52:22;101390.16;;;22.38;54.78
79221;BME280;68648;52.114;5.424;2023-06-19T09:54:51;101397.41;;;22.37;55.29
79221;BME280;68648;52.114;5.424;2023-06-19T09:57:18;101405.09;;;22.47;54.84
79221;BME280;68648;52.114;5.424;2023-06-19T09:59:51;101404.94;;;22.61;53.97
79221;BME280;68648;52.114;5.424;2023-06-19T10:02:19;101410.81;;;22.78;53.07
79221;BME280;68648;52.114;5.424;2023-06-19T10:04:53;101407.94;;;22.99;52.80
79221;BME280;68648;52.114;5.424;2023-06-19T10:07:24;101411.69;;;23.38;52.32
79221;BME280;68648;52.114;5.424;2023-06-19T10:10:03;101407.53;;;23.75;51.13
79221;BME280;68648;52.114;5.424;2023-06-19T10:12:34;101412.94;;;23.49;50.77
79221;BME280;68648;52.114;5.424;2023-06-19T10:17:35;101406.91;;;23.27;51.37
79221;BME280;68648;52.114;5.424;2023-06-19T10:20:02;101400.03;;;22.91;51.83
79221;BME280;68648;52.114;5.424;2023-06-19T10:22:30;101412.13;;;23.02;51.97
79221;BME280;68648;52.114;5.424;2023-06-19T10:24:57;101405.03;;;23.47;50.75
79221;BME280;68648;52.114;5.424;2023-06-19T10:27:25;101407.97;;;23.26;50.93
79221;BME280;68648;52.114;5.424;2023-06-19T10:29:55;101403.59;;;23.45;51.96
79221;BME280;68648;52.114;5.424;2023-06-19T10:32:50;101404.00;;;23.75;50.86
79221;BME280;68648;52.114;5.424;2023-06-19T10:35:18;101407.34;;;23.63;50.56
79221;BME280;68648;52.114;5.424;2023-06-19T10:37:47;101405.03;;;23.73;50.55
79221;BME280;68648;52.114;5.424;2023-06-19T10:40:15;101405.59;;;24.02;50.01
79221;BME280;68648;52.114;5.424;2023-06-19T10:42:42;101408.00;;;24.30;48.45
79221;BME280;68648;52.114;5.424;2023-06-19T10:45:11;101403.22;;;24.32;47.73
79221;BME280;68648;52.114;5.424;2023-06-19T10:47:44;101401.22;;;24.52;47.88
79221;BME280;68648;52.114;5.424;2023-06-19T10:50:13;101407.13;;;24.81;46.93
79221;BME280;68648;52.114;5.424;2023-06-19T10:52:42;101397.66;;;24.58;47.10
79221;BME280;68648;52.114;5.424;2023-06-19T10:55:10;101406.84;;;25.20;46.58
79221;BME280;68648;52.114;5.424;2023-06-19T10:57:39;101405.22;;;25.37;45.52
79221;BME280;68648;52.114;5.424;2023-06-19T11:00:06;101396.16;;;25.75;45.09
79221;BME280;68648;52.114;5.424;2023-06-19T11:02:43;101399.31;;;26.08;43.04
79221;BME280;68648;52.114;5.424;2023-06-19T11:05:10;101396.28;;;25.98;42.31
79221;BME280;68648;52.114;5.424;2023-06-19T11:07:38;101397.81;;;25.76;43.29
79221;BME280;68648;52.114;5.424;2023-06-19T11:10:05;101401.19;;;25.90;43.25
79221;BME280;68648;52.114;5.424;2023-06-19T11:12:32;101399.75;;;25.87;43.34
79221;BME280;68648;52.114;5.424;2023-06-19T11:15:05;101401.72;;;25.98;42.50
79221;BME280;68648;52.114;5.424;2023-06-19T11:17:32;101407.84;;;25.94;42.97
79221;BME280;68648;52.114;5.424;2023-06-19T11:19:59;101392.78;;;25.55;43.99
79221;BME280;68648;52.114;5.424;2023-06-19T11:22:39;101387.13;;;25.56;43.46
79221;BME280;68648;52.114;5.424;2023-06-19T11:25:08;101404.97;;;25.45;43.21
79221;BME280;68648;52.114;5.424;2023-06-19T11:27:37;101401.56;;;25.50;42.82
79221;BME280;68648;52.114;5.424;2023-06-19T11:30:06;101407.13;;;25.37;43.20
79221;BME280;68648;52.114;5.424;2023-06-19T11:32:36;101402.69;;;25.67;42.41
79221;BME280;68648;52.114;5.424;2023-06-19T11:35:09;101401.59;;;25.93;42.65
79221;BME280;68648;52.114;5.424;2023-06-19T11:37:41;101390.97;;;25.92;42.66
79221;BME280;68648;52.114;5.424;2023-06-19T11:40:08;101401.50;;;26.36;42.72
79221;BME280;68648;52.114;5.424;2023-06-19T11:42:49;101400.97;;;26.46;41.70
79221;BME280;68648;52.114;5.424;2023-06-19T11:45:18;101404.59;;;26.03;42.58
79221;BME280;68648;52.114;5.424;2023-06-19T11:47:45;101402.31;;;26.19;42.41
79221;BME280;68648;52.114;5.424;2023-06-19T11:50:13;101405.25;;;26.35;41.26
79221;BME280;68648;52.114;5.424;2023-06-19T11:52:44;101408.09;;;26.29;41.05
79221;BME280;68648;52.114;5.424;2023-06-19T11:55:11;101408.50;;;26.07;41.09
79221;BME280;68648;52.114;5.424;2023-06-19T11:57:38;101406.53;;;26.33;40.93
79221;BME280;68648;52.114;5.424;2023-06-19T12:00:14;101402.28;;;26.55;41.73
79221;BME280;68648;52.114;5.424;2023-06-19T12:02:41;101409.25;;;26.14;41.98
79221;BME280;68648;52.114;5.424;2023-06-19T12:05:08;101416.78;;;25.76;42.43
79221;BME280;68648;52.114;5.424;2023-06-19T12:07:35;101414.25;;;25.81;41.82
79221;BME280;68648;52.114;5.424;2023-06-19T12:10:02;101400.66;;;26.36;41.06
79221;BME280;68648;52.114;5.424;2023-06-19T12:12:30;101400.06;;;26.64;40.48
79221;BME280;68648;52.114;5.424;2023-06-19T12:14:57;101405.09;;;26.48;40.63
79221;BME280;68648;52.114;5.424;2023-06-19T12:17:23;101404.44;;;26.65;39.61
79221;BME280;68648;52.114;5.424;2023-06-19T12:19:53;101403.97;;;26.68;40.08
79221;BME280;68648;52.114;5.424;2023-06-19T12:22:20;101403.84;;;26.63;40.76
79221;BME280;68648;52.114;5.424;2023-06-19T12:24:46;101410.16;;;26.75;39.80
79221;BME280;68648;52.114;5.424;2023-06-19T12:27:13;101412.91;;;26.87;39.09
79221;BME280;68648;52.114;5.424;2023-06-19T12:29:40;101408.72;;;27.14;38.01
79221;BME280;68648;52.114;5.424;2023-06-19T12:32:06;101407.75;;;26.97;39.01
79221;BME280;68648;52.114;5.424;2023-06-19T12:34:33;101414.19;;;27.49;37.95
79221;BME280;68648;52.114;5.424;2023-06-19T12:37:01;101412.06;;;27.98;37.13
79221;BME280;68648;52.114;5.424;2023-06-19T12:39:28;101412.41;;;28.25;36.06
79221;BME280;68648;52.114;5.424;2023-06-19T12:41:54;101415.78;;;28.60;34.70
79221;BME280;68648;52.114;5.424;2023-06-19T12:44:23;101413.06;;;28.32;35.37
79221;BME280;68648;52.114;5.424;2023-06-19T12:46:52;101413.91;;;28.09;36.73
79221;BME280;68648;52.114;5.424;2023-06-19T12:49:20;101413.34;;;28.07;36.23
79221;BME280;68648;52.114;5.424;2023-06-19T12:51:47;101416.25;;;28.69;34.20
79221;BME280;68648;52.114;5.424;2023-06-19T12:54:18;101419.03;;;28.74;34.05
79221;BME280;68648;52.114;5.424;2023-06-19T12:56:45;101418.38;;;29.12;33.53
79221;BME280;68648;52.114;5.424;2023-06-19T12:59:12;101421.59;;;29.09;34.10